Littleton, IL (61452)

6:01 PM CST on December 10, 2016 (GMT -0600)
Camden | | Change Station

Elev 592 ft 40.15 °N, 90.77 °W | Updated 8 seconds ago

Overcast
Overcast
29.1 °F
Feels Like 24 °F
N
5.1
Wind Variable Wind from SE
Gusts 7.4 mph

Today
High -- | Low -- °F
--% Chance of Precip.
Yesterday
High -- | Low -- °F
Precip. -- in
Pressure 30.32 in
Visibility 10.0 miles
Clouds Overcast 5000 ft
Windchill 24 °F
Dew Point 15 °F
Humidity 55%
Rainfall 0.00 in
Snow Depth Not available.
7:14 AM 4:36 PM
Waxing Gibbous, 87% visible
METAR KMQB 102355Z AUTO 12010G14KT 10SM OVC050 M03/M09 A3032 RMK AO2 T10271086 11020 21035
Pressure 30.32 in
Visibility 10.0 miles
Clouds Overcast 5000 ft
Windchill 24 °F
Dew Point 15 °F
Humidity 55%
Rainfall 0.00 in
Snow Depth Not available.
7:14 AM 4:36 PM
Waxing Gibbous, 87% visible
METAR KMQB 102355Z AUTO 12010G14KT 10SM OVC050 M03/M09 A3032 RMK AO2 T10271086 11020 21035

10-Day Weather Forecast

Almanac

Astronomy

Dec. 10, 2016 Rise Set
Actual Time
Civil Twilight
Nautical Twilight
Astronomical Twilight
Moon
Length of Visible Light
Length of Day
Tomorrow will be .
, % of the Moon is Illuminated

Today's Extremes

State Highs State Lows

Community

WunderPhotos

Upload Photos

1,956,677 photos uploaded!

WunderBlog® & News

Nearby

Air Quality

  Air Quality AQ Index Pollutant
Not available.

Snow Depth

Station Depth Elevation

Earthquake Activity

City Distance Mag. Time & Date
Minimum magnitude displayed is 2.5.

Coastal Water Temperatures

Place Temperature

Stations

Nearby Weather Stations

Station Location Temp. Windchill Dew Point Humidity Wind Precip. Elev Updated Type
                   

Watches & Warnings

There are currently no watches in effect.